AFL1712 URWW-UWWW
Flight info
| Callsign | AFL1712 |
|---|---|
| Flight time | 1h 4m |
| Altitude | 37000 |
| Route | RODUN R807 UROBO P135 TUNIG |
| Aircraft | B737/M-SDE2FGIJ1RWYZ/L |
Departure
| Time | 2026-04-25 06:12 |
|---|---|
| Airport | Volgograd International Airport (URWW) |
Arrival
| Time | 2026-04-25 07:16 |
|---|---|
| Airport | Kurumoch International Airport (UWWW) |
| Time | Latitude | Longitude | Altitude | Speed | Heading |
|---|---|---|---|---|---|
| 2026-04-25 06:02 | 48.78762 | 44.34782 | 461 ft | 0 kts | 159° |
| 2026-04-25 06:06 | 48.78774 | 44.34775 | 461 ft | 2 kts | 159° |
| 2026-04-25 06:07 | 48.78784 | 44.34769 | 461 ft | 0 kts | 159° |
| 2026-04-25 06:07 | 48.78795 | 44.34759 | 461 ft | 2 kts | 112° |
| 2026-04-25 06:07 | 48.78796 | 44.34742 | 461 ft | 0 kts | 73° |
| 2026-04-25 06:07 | 48.78793 | 44.34731 | 460 ft | 0 kts | 70° |
| 2026-04-25 06:08 | 48.78793 | 44.34730 | 460 ft | 0 kts | 70° |
| 2026-04-25 06:09 | 48.78797 | 44.34746 | 461 ft | 6 kts | 70° |
| 2026-04-25 06:09 | 48.78824 | 44.34856 | 464 ft | 14 kts | 68° |
| 2026-04-25 06:09 | 48.78867 | 44.35030 | 469 ft | 19 kts | 82° |
| 2026-04-25 06:10 | 48.78788 | 44.35160 | 469 ft | 18 kts | 163° |
| 2026-04-25 06:10 | 48.78668 | 44.35211 | 469 ft | 17 kts | 160° |
| 2026-04-25 06:10 | 48.78561 | 44.35222 | 468 ft | 15 kts | 217° |
| 2026-04-25 06:10 | 48.78502 | 44.35071 | 465 ft | 20 kts | 244° |
| 2026-04-25 06:11 | 48.78425 | 44.34794 | 461 ft | 36 kts | 244° |
| 2026-04-25 06:11 | 48.78276 | 44.34309 | 454 ft | 78 kts | 245° |
| 2026-04-25 06:11 | 48.77935 | 44.33257 | 429 ft | 143 kts | 244° |
| 2026-04-25 06:11 | 48.77411 | 44.31789 | 783 ft | 165 kts | 246° |
| 2026-04-25 06:12 | 48.76921 | 44.30293 | 1746 ft | 155 kts | 250° |
| 2026-04-25 06:12 | 48.76487 | 44.28811 | 2364 ft | 161 kts | 250° |
| 2026-04-25 06:12 | 48.76004 | 44.27222 | 2820 ft | 174 kts | 249° |
| 2026-04-25 06:12 | 48.75445 | 44.25471 | 3048 ft | 199 kts | 248° |
| 2026-04-25 06:13 | 48.74806 | 44.23483 | 3005 ft | 216 kts | 248° |
| 2026-04-25 06:13 | 48.74406 | 44.21224 | 3319 ft | 234 kts | 272° |
| 2026-04-25 06:13 | 48.74831 | 44.18848 | 4072 ft | 238 kts | 298° |
| 2026-04-25 06:14 | 48.77308 | 44.15573 | 5588 ft | 254 kts | 340° |
| 2026-04-25 06:14 | 48.79101 | 44.15523 | 6356 ft | 268 kts | 9° |
| 2026-04-25 06:14 | 48.80800 | 44.16757 | 7105 ft | 278 kts | 28° |
| 2026-04-25 06:14 | 48.82375 | 44.18472 | 7828 ft | 284 kts | 32° |
| 2026-04-25 06:15 | 48.83947 | 44.20289 | 8602 ft | 286 kts | 33° |
| 2026-04-25 06:15 | 48.85538 | 44.22110 | 9343 ft | 288 kts | 32° |
| 2026-04-25 06:15 | 48.87132 | 44.23900 | 10101 ft | 290 kts | 32° |
| 2026-04-25 06:15 | 48.88815 | 44.25766 | 10572 ft | 303 kts | 32° |
| 2026-04-25 06:16 | 48.90553 | 44.27678 | 11026 ft | 316 kts | 32° |
| 2026-04-25 06:16 | 48.92386 | 44.29693 | 11423 ft | 331 kts | 32° |
| 2026-04-25 06:16 | 48.94297 | 44.31800 | 11898 ft | 343 kts | 32° |
| 2026-04-25 06:16 | 48.96255 | 44.33966 | 12585 ft | 349 kts | 32° |
| 2026-04-25 06:17 | 48.98223 | 44.36151 | 13354 ft | 352 kts | 32° |
| 2026-04-25 06:17 | 49.00196 | 44.38342 | 14159 ft | 354 kts | 32° |
| 2026-04-25 06:17 | 49.02227 | 44.40600 | 14978 ft | 357 kts | 32° |
| 2026-04-25 06:17 | 49.04229 | 44.42826 | 15769 ft | 359 kts | 32° |
| 2026-04-25 06:18 | 49.06287 | 44.45114 | 16541 ft | 363 kts | 32° |
| 2026-04-25 06:18 | 49.08345 | 44.47404 | 17311 ft | 365 kts | 32° |
| 2026-04-25 06:18 | 49.10405 | 44.49700 | 18025 ft | 369 kts | 32° |
| 2026-04-25 06:18 | 49.12502 | 44.52038 | 18748 ft | 372 kts | 32° |
| 2026-04-25 06:19 | 49.14616 | 44.54398 | 19433 ft | 376 kts | 32° |
| 2026-04-25 06:19 | 49.16750 | 44.56779 | 20088 ft | 380 kts | 32° |
| 2026-04-25 06:19 | 49.18931 | 44.59213 | 20712 ft | 384 kts | 32° |
| 2026-04-25 06:19 | 49.21106 | 44.61644 | 21360 ft | 386 kts | 32° |
| 2026-04-25 06:20 | 49.23280 | 44.64077 | 21941 ft | 390 kts | 32° |
| 2026-04-25 06:20 | 49.25521 | 44.66588 | 22530 ft | 394 kts | 33° |
| 2026-04-25 06:20 | 49.27774 | 44.69114 | 23065 ft | 398 kts | 33° |
| 2026-04-25 06:20 | 49.30055 | 44.71676 | 23627 ft | 402 kts | 33° |
| 2026-04-25 06:21 | 49.32335 | 44.74237 | 24148 ft | 406 kts | 32° |
| 2026-04-25 06:21 | 49.34682 | 44.76875 | 24646 ft | 410 kts | 33° |
| 2026-04-25 06:21 | 49.37014 | 44.79501 | 25093 ft | 413 kts | 33° |
| 2026-04-25 06:21 | 49.39354 | 44.82142 | 25523 ft | 416 kts | 33° |
| 2026-04-25 06:22 | 49.41678 | 44.84767 | 25908 ft | 419 kts | 32° |
| 2026-04-25 06:22 | 49.44060 | 44.87461 | 26301 ft | 422 kts | 33° |
| 2026-04-25 06:22 | 49.46449 | 44.90166 | 26673 ft | 425 kts | 32° |
| 2026-04-25 06:22 | 49.48837 | 44.92872 | 27048 ft | 427 kts | 33° |
| 2026-04-25 06:23 | 49.51228 | 44.95590 | 27424 ft | 429 kts | 33° |
| 2026-04-25 06:23 | 49.53671 | 44.98370 | 27788 ft | 432 kts | 33° |
| 2026-04-25 06:23 | 49.56100 | 45.01139 | 28102 ft | 435 kts | 33° |
| 2026-04-25 06:23 | 49.58564 | 45.03955 | 28467 ft | 436 kts | 33° |
| 2026-04-25 06:24 | 49.61022 | 45.06769 | 28767 ft | 439 kts | 33° |
| 2026-04-25 06:24 | 49.63472 | 45.09609 | 29038 ft | 443 kts | 33° |
| 2026-04-25 06:24 | 49.65987 | 45.12310 | 29291 ft | 444 kts | 28° |
| 2026-04-25 06:24 | 49.68747 | 45.14548 | 29606 ft | 441 kts | 20° |
| 2026-04-25 06:25 | 49.71633 | 45.16238 | 29918 ft | 440 kts | 15° |
| 2026-04-25 06:25 | 49.74537 | 45.17619 | 30383 ft | 435 kts | 13° |
| 2026-04-25 06:25 | 49.77458 | 45.18869 | 30689 ft | 436 kts | 12° |
| 2026-04-25 06:25 | 49.80449 | 45.20095 | 30949 ft | 438 kts | 11° |
| 2026-04-25 06:26 | 49.83396 | 45.21296 | 31204 ft | 441 kts | 11° |
| 2026-04-25 06:26 | 49.86389 | 45.22535 | 31498 ft | 442 kts | 12° |
| 2026-04-25 06:26 | 49.89331 | 45.23775 | 31822 ft | 441 kts | 12° |
| 2026-04-25 06:26 | 49.92313 | 45.25051 | 32094 ft | 442 kts | 12° |
| 2026-04-25 06:27 | 49.95295 | 45.26343 | 32366 ft | 443 kts | 12° |
| 2026-04-25 06:27 | 49.98279 | 45.27647 | 32631 ft | 444 kts | 12° |
| 2026-04-25 06:27 | 50.01276 | 45.28963 | 32860 ft | 445 kts | 12° |
| 2026-04-25 06:27 | 50.04296 | 45.30222 | 33103 ft | 445 kts | 10° |
| 2026-04-25 06:28 | 50.07299 | 45.31314 | 33436 ft | 445 kts | 9° |
| 2026-04-25 06:28 | 50.10317 | 45.32326 | 33746 ft | 444 kts | 8° |
| 2026-04-25 06:28 | 50.13431 | 45.33336 | 34073 ft | 444 kts | 8° |
| 2026-04-25 06:28 | 50.16457 | 45.34314 | 34411 ft | 443 kts | 8° |
| 2026-04-25 06:29 | 50.19474 | 45.35297 | 34706 ft | 443 kts | 8° |
| 2026-04-25 06:29 | 50.22516 | 45.36300 | 34989 ft | 443 kts | 8° |
| 2026-04-25 06:29 | 50.25516 | 45.37301 | 35271 ft | 443 kts | 8° |
| 2026-04-25 06:29 | 50.28545 | 45.38320 | 35538 ft | 443 kts | 8° |
| 2026-04-25 06:30 | 50.31550 | 45.39340 | 35794 ft | 444 kts | 8° |
| 2026-04-25 06:30 | 50.34574 | 45.40371 | 36035 ft | 444 kts | 8° |
| 2026-04-25 06:30 | 50.37632 | 45.41417 | 36256 ft | 445 kts | 8° |
| 2026-04-25 06:30 | 50.40675 | 45.42461 | 36476 ft | 446 kts | 8° |
| 2026-04-25 06:31 | 50.43694 | 45.43499 | 36709 ft | 446 kts | 8° |
| 2026-04-25 06:31 | 50.49784 | 45.45598 | 36790 ft | 449 kts | 8° |
| 2026-04-25 06:32 | 50.55877 | 45.47708 | 36780 ft | 445 kts | 8° |
| 2026-04-25 06:32 | 50.61913 | 45.49805 | 36778 ft | 446 kts | 9° |
| 2026-04-25 06:33 | 50.68015 | 45.51926 | 36769 ft | 445 kts | 8° |
| 2026-04-25 06:33 | 50.74038 | 45.54027 | 36761 ft | 445 kts | 8° |
| 2026-04-25 06:34 | 50.80147 | 45.56167 | 36763 ft | 446 kts | 9° |
| 2026-04-25 06:34 | 50.86198 | 45.58324 | 36760 ft | 445 kts | 9° |
| 2026-04-25 06:35 | 50.92252 | 45.60503 | 36752 ft | 445 kts | 9° |
| 2026-04-25 06:35 | 50.98277 | 45.62677 | 36751 ft | 446 kts | 9° |
| 2026-04-25 06:36 | 51.04283 | 45.65433 | 36747 ft | 449 kts | 18° |
| 2026-04-25 06:36 | 51.10113 | 45.69384 | 36752 ft | 452 kts | 22° |
| 2026-04-25 06:37 | 51.15875 | 45.73748 | 36751 ft | 452 kts | 23° |
| 2026-04-25 06:37 | 51.21541 | 45.78103 | 36750 ft | 451 kts | 22° |
| 2026-04-25 06:38 | 51.27211 | 45.82444 | 36747 ft | 451 kts | 22° |
| 2026-04-25 06:38 | 51.32885 | 45.86764 | 36738 ft | 452 kts | 22° |
| 2026-04-25 06:39 | 51.38578 | 45.91092 | 36730 ft | 452 kts | 22° |
| 2026-04-25 06:39 | 51.44250 | 45.95408 | 36730 ft | 452 kts | 22° |
| 2026-04-25 06:40 | 51.49923 | 45.99750 | 36721 ft | 452 kts | 22° |
| 2026-04-25 06:40 | 51.55529 | 46.04408 | 36714 ft | 453 kts | 28° |
| 2026-04-25 06:41 | 51.60659 | 46.10333 | 36707 ft | 457 kts | 36° |
| 2026-04-25 06:41 | 51.65545 | 46.17048 | 36695 ft | 458 kts | 38° |
| 2026-04-25 06:42 | 51.70341 | 46.23880 | 36686 ft | 459 kts | 38° |
| 2026-04-25 06:42 | 51.75127 | 46.30689 | 36680 ft | 459 kts | 38° |
| 2026-04-25 06:43 | 51.79904 | 46.37555 | 36681 ft | 460 kts | 41° |
| 2026-04-25 06:43 | 51.84245 | 46.45266 | 36678 ft | 463 kts | 47° |
| 2026-04-25 06:44 | 51.88246 | 46.53434 | 36680 ft | 464 kts | 50° |
| 2026-04-25 06:44 | 51.92164 | 46.61722 | 36670 ft | 463 kts | 50° |
| 2026-04-25 06:45 | 51.96095 | 46.70056 | 36674 ft | 464 kts | 50° |
| 2026-04-25 06:45 | 52.00003 | 46.78323 | 36668 ft | 463 kts | 50° |
| 2026-04-25 06:46 | 52.03935 | 46.86628 | 36667 ft | 464 kts | 50° |
| 2026-04-25 06:46 | 52.07880 | 46.94965 | 36657 ft | 465 kts | 50° |
| 2026-04-25 06:47 | 52.11884 | 47.03449 | 36645 ft | 466 kts | 50° |
| 2026-04-25 06:47 | 52.15842 | 47.11863 | 36455 ft | 462 kts | 50° |
| 2026-04-25 06:47 | 52.17781 | 47.15998 | 36083 ft | 458 kts | 50° |
| 2026-04-25 06:48 | 52.19707 | 47.20113 | 35571 ft | 457 kts | 50° |
| 2026-04-25 06:48 | 52.21622 | 47.24211 | 34923 ft | 460 kts | 50° |
| 2026-04-25 06:48 | 52.23577 | 47.28402 | 34200 ft | 464 kts | 50° |
| 2026-04-25 06:48 | 52.25532 | 47.32596 | 33445 ft | 469 kts | 50° |
| 2026-04-25 06:49 | 52.27491 | 47.36809 | 32918 ft | 467 kts | 50° |
| 2026-04-25 06:49 | 52.29448 | 47.41027 | 32424 ft | 466 kts | 50° |
| 2026-04-25 06:49 | 52.31417 | 47.45277 | 31894 ft | 466 kts | 50° |
| 2026-04-25 06:49 | 52.33357 | 47.49471 | 31367 ft | 466 kts | 50° |
| 2026-04-25 06:50 | 52.35328 | 47.53742 | 30818 ft | 465 kts | 50° |
| 2026-04-25 06:50 | 52.37278 | 47.57971 | 30275 ft | 465 kts | 50° |
| 2026-04-25 06:50 | 52.39207 | 47.62161 | 29750 ft | 464 kts | 50° |
| 2026-04-25 06:50 | 52.41167 | 47.66423 | 29197 ft | 464 kts | 50° |
| 2026-04-25 06:51 | 52.43100 | 47.70633 | 28654 ft | 463 kts | 51° |
| 2026-04-25 06:51 | 52.45034 | 47.74855 | 28094 ft | 462 kts | 51° |
| 2026-04-25 06:51 | 52.46981 | 47.79112 | 27511 ft | 461 kts | 51° |
| 2026-04-25 06:51 | 52.48890 | 47.83291 | 26937 ft | 460 kts | 51° |
| 2026-04-25 06:52 | 52.50796 | 47.87471 | 26375 ft | 457 kts | 51° |
| 2026-04-25 06:52 | 52.52686 | 47.91625 | 25803 ft | 455 kts | 51° |
| 2026-04-25 06:52 | 52.54593 | 47.95822 | 25211 ft | 452 kts | 51° |
| 2026-04-25 06:52 | 52.56460 | 47.99934 | 24552 ft | 448 kts | 51° |
| 2026-04-25 06:53 | 52.58346 | 48.04093 | 23941 ft | 442 kts | 51° |
| 2026-04-25 06:53 | 52.60160 | 48.08096 | 23400 ft | 434 kts | 51° |
| 2026-04-25 06:53 | 52.61954 | 48.12061 | 22870 ft | 427 kts | 51° |
| 2026-04-25 06:53 | 52.63710 | 48.15949 | 22342 ft | 421 kts | 51° |
| 2026-04-25 06:54 | 52.65447 | 48.19798 | 21820 ft | 414 kts | 51° |
| 2026-04-25 06:54 | 52.67142 | 48.23561 | 21302 ft | 409 kts | 51° |
| 2026-04-25 06:54 | 52.68837 | 48.27331 | 20790 ft | 403 kts | 51° |
| 2026-04-25 06:54 | 52.70496 | 48.31029 | 20272 ft | 398 kts | 51° |
| 2026-04-25 06:55 | 52.72120 | 48.34647 | 19760 ft | 393 kts | 51° |
| 2026-04-25 06:55 | 52.73748 | 48.38277 | 19250 ft | 389 kts | 51° |
| 2026-04-25 06:55 | 52.75336 | 48.41826 | 18758 ft | 384 kts | 51° |
| 2026-04-25 06:55 | 52.76918 | 48.45372 | 18245 ft | 380 kts | 51° |
| 2026-04-25 06:56 | 52.78468 | 48.48848 | 17755 ft | 375 kts | 51° |
| 2026-04-25 06:56 | 52.80009 | 48.52307 | 17263 ft | 371 kts | 51° |
| 2026-04-25 06:56 | 52.81531 | 48.55729 | 16775 ft | 367 kts | 51° |
| 2026-04-25 06:56 | 52.83019 | 48.59079 | 16293 ft | 363 kts | 51° |
| 2026-04-25 06:57 | 52.84505 | 48.62431 | 15808 ft | 360 kts | 51° |
| 2026-04-25 06:57 | 52.85979 | 48.65765 | 15322 ft | 356 kts | 52° |
| 2026-04-25 06:57 | 52.87460 | 48.69117 | 14844 ft | 353 kts | 52° |
| 2026-04-25 06:57 | 52.88891 | 48.72369 | 14385 ft | 349 kts | 52° |
| 2026-04-25 06:58 | 52.90311 | 48.75602 | 13918 ft | 347 kts | 52° |
| 2026-04-25 06:58 | 52.91727 | 48.78822 | 13448 ft | 344 kts | 52° |
| 2026-04-25 06:58 | 52.93138 | 48.82023 | 12988 ft | 341 kts | 52° |
| 2026-04-25 06:58 | 52.94526 | 48.85181 | 12541 ft | 338 kts | 52° |
| 2026-04-25 06:59 | 52.95903 | 48.88332 | 12087 ft | 336 kts | 52° |
| 2026-04-25 06:59 | 52.97255 | 48.91437 | 11632 ft | 334 kts | 52° |
| 2026-04-25 06:59 | 52.98624 | 48.94583 | 11188 ft | 331 kts | 52° |
| 2026-04-25 06:59 | 52.99966 | 48.97661 | 10738 ft | 329 kts | 52° |
| 2026-04-25 07:00 | 53.01298 | 49.00720 | 10301 ft | 327 kts | 52° |
| 2026-04-25 07:00 | 53.02618 | 49.03757 | 9921 ft | 323 kts | 52° |
| 2026-04-25 07:00 | 53.03912 | 49.06750 | 9745 ft | 312 kts | 52° |
| 2026-04-25 07:00 | 53.05152 | 49.09627 | 9616 ft | 302 kts | 52° |
| 2026-04-25 07:01 | 53.06373 | 49.12454 | 9249 ft | 300 kts | 51° |
| 2026-04-25 07:01 | 53.07627 | 49.15337 | 8844 ft | 299 kts | 51° |
| 2026-04-25 07:01 | 53.08977 | 49.17968 | 8584 ft | 289 kts | 40° |
| 2026-04-25 07:01 | 53.10503 | 49.20050 | 8583 ft | 278 kts | 32° |
| 2026-04-25 07:02 | 53.12132 | 49.21950 | 8578 ft | 279 kts | 31° |
| 2026-04-25 07:02 | 53.13738 | 49.23779 | 8568 ft | 280 kts | 31° |
| 2026-04-25 07:02 | 53.15336 | 49.25654 | 8562 ft | 280 kts | 32° |
| 2026-04-25 07:02 | 53.16911 | 49.27561 | 8565 ft | 281 kts | 33° |
| 2026-04-25 07:03 | 53.18488 | 49.29487 | 8565 ft | 280 kts | 32° |
| 2026-04-25 07:03 | 53.20058 | 49.31390 | 8563 ft | 280 kts | 32° |
| 2026-04-25 07:03 | 53.21636 | 49.33296 | 8561 ft | 281 kts | 32° |
| 2026-04-25 07:03 | 53.23232 | 49.35245 | 8558 ft | 280 kts | 32° |
| 2026-04-25 07:04 | 53.24802 | 49.37165 | 8554 ft | 281 kts | 32° |
| 2026-04-25 07:04 | 53.26379 | 49.39093 | 8550 ft | 282 kts | 32° |
| 2026-04-25 07:04 | 53.27958 | 49.41015 | 8550 ft | 282 kts | 32° |
| 2026-04-25 07:04 | 53.29550 | 49.42949 | 8552 ft | 282 kts | 32° |
| 2026-04-25 07:05 | 53.31138 | 49.44883 | 8552 ft | 281 kts | 32° |
| 2026-04-25 07:05 | 53.32722 | 49.46814 | 8552 ft | 281 kts | 32° |
| 2026-04-25 07:05 | 53.34301 | 49.48751 | 8551 ft | 283 kts | 32° |
| 2026-04-25 07:05 | 53.35876 | 49.50692 | 8548 ft | 282 kts | 32° |
| 2026-04-25 07:06 | 53.37459 | 49.52645 | 8549 ft | 282 kts | 32° |
| 2026-04-25 07:06 | 53.39032 | 49.54588 | 8547 ft | 283 kts | 32° |
| 2026-04-25 07:06 | 53.40631 | 49.56558 | 8547 ft | 283 kts | 32° |
| 2026-04-25 07:06 | 53.42208 | 49.58508 | 8448 ft | 286 kts | 32° |
| 2026-04-25 07:07 | 53.43800 | 49.60476 | 8179 ft | 283 kts | 32° |
| 2026-04-25 07:07 | 53.45378 | 49.62424 | 7919 ft | 280 kts | 32° |
| 2026-04-25 07:07 | 53.46959 | 49.64389 | 7674 ft | 279 kts | 32° |
| 2026-04-25 07:07 | 53.48518 | 49.66324 | 7436 ft | 280 kts | 32° |
| 2026-04-25 07:08 | 53.50093 | 49.68257 | 7071 ft | 280 kts | 32° |
| 2026-04-25 07:08 | 53.51656 | 49.70178 | 6726 ft | 279 kts | 32° |
| 2026-04-25 07:08 | 53.53231 | 49.72121 | 6365 ft | 278 kts | 33° |
| 2026-04-25 07:08 | 53.54778 | 49.74039 | 6032 ft | 276 kts | 33° |
| 2026-04-25 07:09 | 53.56308 | 49.75946 | 5832 ft | 272 kts | 33° |
| 2026-04-25 07:09 | 53.57845 | 49.77864 | 5371 ft | 277 kts | 33° |
| 2026-04-25 07:09 | 53.59376 | 49.79766 | 5105 ft | 274 kts | 32° |
| 2026-04-25 07:09 | 53.60922 | 49.81688 | 4844 ft | 277 kts | 33° |
| 2026-04-25 07:10 | 53.62468 | 49.83614 | 4582 ft | 279 kts | 33° |
| 2026-04-25 07:10 | 53.64021 | 49.85560 | 4316 ft | 277 kts | 33° |
| 2026-04-25 07:10 | 53.65567 | 49.87502 | 4061 ft | 278 kts | 34° |
| 2026-04-25 07:10 | 53.67007 | 49.89681 | 3986 ft | 279 kts | 48° |
| 2026-04-25 07:11 | 53.67938 | 49.92558 | 3970 ft | 280 kts | 78° |
| 2026-04-25 07:11 | 53.68090 | 49.95739 | 3947 ft | 264 kts | 96° |
| 2026-04-25 07:11 | 53.67960 | 49.98752 | 3891 ft | 252 kts | 99° |
| 2026-04-25 07:11 | 53.67841 | 50.01628 | 3771 ft | 246 kts | 97° |
| 2026-04-25 07:12 | 53.67683 | 50.04480 | 3518 ft | 243 kts | 105° |
| 2026-04-25 07:12 | 53.65951 | 50.08634 | 3010 ft | 210 kts | 167° |
| 2026-04-25 07:12 | 53.64581 | 50.09287 | 2988 ft | 203 kts | 173° |
| 2026-04-25 07:13 | 53.63222 | 50.09987 | 2999 ft | 202 kts | 168° |
| 2026-04-25 07:13 | 53.61950 | 50.10813 | 2993 ft | 187 kts | 167° |
| 2026-04-25 07:13 | 53.60765 | 50.11544 | 3000 ft | 176 kts | 171° |
| 2026-04-25 07:13 | 53.59613 | 50.12202 | 3004 ft | 176 kts | 170° |
| 2026-04-25 07:14 | 53.58447 | 50.12913 | 3002 ft | 177 kts | 169° |
| 2026-04-25 07:14 | 53.57297 | 50.13609 | 3004 ft | 175 kts | 170° |
| 2026-04-25 07:14 | 53.56123 | 50.14280 | 2763 ft | 186 kts | 170° |
| 2026-04-25 07:14 | 53.54881 | 50.15022 | 2258 ft | 194 kts | 166° |
| 2026-04-25 07:15 | 53.53617 | 50.15901 | 1524 ft | 199 kts | 164° |
| 2026-04-25 07:15 | 53.52350 | 50.16658 | 879 ft | 191 kts | 168° |
| 2026-04-25 07:15 | 53.51141 | 50.17278 | 455 ft | 171 kts | 165° |
| 2026-04-25 07:15 | 53.50117 | 50.17864 | 377 ft | 129 kts | 162° |
| 2026-04-25 07:16 | 53.49537 | 50.18225 | 381 ft | 41 kts | 158° |
| 2026-04-25 07:16 | 53.49326 | 50.18284 | 385 ft | 30 kts | 216° |
| 2026-04-25 07:16 | 53.49300 | 50.17988 | 390 ft | 26 kts | 306° |
| 2026-04-25 07:16 | 53.49473 | 50.17839 | 388 ft | 35 kts | 340° |
| 2026-04-25 07:17 | 53.49814 | 50.17633 | 384 ft | 64 kts | 340° |
| 2026-04-25 07:17 | 53.50279 | 50.17355 | 388 ft | 74 kts | 340° |
| 2026-04-25 07:17 | 53.50718 | 50.17093 | 401 ft | 49 kts | 343° |
| 2026-04-25 07:17 | 53.50933 | 50.16793 | 410 ft | 39 kts | 301° |
| 2026-04-25 07:18 | 53.51092 | 50.16356 | 422 ft | 46 kts | 300° |
| 2026-04-25 07:18 | 53.51139 | 50.16011 | 427 ft | 17 kts | 255° |
| 2026-04-25 07:18 | 53.51163 | 50.15924 | 427 ft | 0 kts | 326° |